sensor_id;sensor_type;location;lat;lon;timestamp;temperature;humidity
29551;DHT22;16488;52.396;10.696;2022-10-17T13:01:50;12.60;99.90
29551;DHT22;16488;52.396;10.696;2022-10-17T13:04:17;24.60;98.80
29551;DHT22;16488;52.396;10.696;2022-10-17T13:06:47;24.20;98.50
29551;DHT22;16488;52.396;10.696;2022-10-17T13:09:34;24.10;98.60
29551;DHT22;16488;52.396;10.696;2022-10-17T13:12:02;23.90;98.90
29551;DHT22;16488;52.396;10.696;2022-10-17T13:14:30;23.90;99.60
29551;DHT22;16488;52.396;10.696;2022-10-17T13:17:02;23.80;99.40
29551;DHT22;16488;52.396;10.696;2022-10-17T13:19:43;23.70;99.90
29551;DHT22;16488;52.396;10.696;2022-10-17T13:22:28;23.60;99.90
29551;DHT22;16488;52.396;10.696;2022-10-17T13:25:16;23.50;99.70
29551;DHT22;16488;52.396;10.696;2022-10-17T13:27:46;23.40;99.90
29551;DHT22;16488;52.396;10.696;2022-10-17T13:30:33;23.20;99.90
29551;DHT22;16488;52.396;10.696;2022-10-17T13:33:00;23.10;99.70
29551;DHT22;16488;52.396;10.696;2022-10-17T13:35:34;23.10;99.90
29551;DHT22;16488;52.396;10.696;2022-10-17T13:38:04;23.00;99.90
29551;DHT22;16488;52.396;10.696;2022-10-17T13:40:40;23.00;99.90
29551;DHT22;16488;52.396;10.696;2022-10-17T13:43:18;22.90;99.90
29551;DHT22;16488;52.396;10.696;2022-10-17T13:45:48;22.90;99.90
29551;DHT22;16488;52.396;10.696;2022-10-17T13:48:35;22.90;99.90
29551;DHT22;16488;52.396;10.696;2022-10-17T13:51:04;22.90;99.90
29551;DHT22;16488;52.396;10.696;2022-10-17T13:53:32;22.80;99.90
29551;DHT22;16488;52.396;10.696;2022-10-17T13:56:27;22.80;99.90
29551;DHT22;16488;52.396;10.696;2022-10-17T13:59:00;22.80;99.90
29551;DHT22;16488;52.396;10.696;2022-10-17T14:01:28;22.80;99.90
29551;DHT22;16488;52.396;10.696;2022-10-17T14:03:54;22.80;99.90
29551;DHT22;16488;52.396;10.696;2022-10-17T14:06:24;22.80;99.90
29551;DHT22;16488;52.396;10.696;2022-10-17T14:11:26;22.70;99.90
29551;DHT22;16488;52.396;10.696;2022-10-17T14:13:54;22.60;99.90
29551;DHT22;16488;52.396;10.696;2022-10-17T14:16:22;22.60;99.90
29551;DHT22;16488;52.396;10.696;2022-10-17T14:18:49;22.50;99.90
29551;DHT22;16488;52.396;10.696;2022-10-17T14:21:21;22.50;99.90
29551;DHT22;16488;52.396;10.696;2022-10-17T14:23:47;22.40;99.90
29551;DHT22;16488;52.396;10.696;2022-10-17T14:26:19;22.40;99.90
29551;DHT22;16488;52.396;10.696;2022-10-17T14:29:04;22.40;99.90
29551;DHT22;16488;52.396;10.696;2022-10-17T14:31:34;22.30;99.90
29551;DHT22;16488;52.396;10.696;2022-10-17T14:34:02;22.30;99.90
29551;DHT22;16488;52.396;10.696;2022-10-17T14:36:37;22.20;99.90
29551;DHT22;16488;52.396;10.696;2022-10-17T14:39:06;22.20;99.90
29551;DHT22;16488;52.396;10.696;2022-10-17T14:41:34;22.20;99.90
29551;DHT22;16488;52.396;10.696;2022-10-17T14:44:02;22.10;99.90
29551;DHT22;16488;52.396;10.696;2022-10-17T14:46:31;22.10;99.90
29551;DHT22;16488;52.396;10.696;2022-10-17T14:49:13;22.00;99.90
29551;DHT22;16488;52.396;10.696;2022-10-17T14:51:39;22.00;99.90
29551;DHT22;16488;52.396;10.696;2022-10-17T14:54:25;22.00;99.90
29551;DHT22;16488;52.396;10.696;2022-10-17T14:56:53;22.00;99.90
29551;DHT22;16488;52.396;10.696;2022-10-17T14:59:19;22.00;99.90
29551;DHT22;16488;52.396;10.696;2022-10-17T15:01:48;21.90;99.90
29551;DHT22;16488;52.396;10.696;2022-10-17T15:04:15;21.90;99.90
29551;DHT22;16488;52.396;10.696;2022-10-17T15:06:40;21.90;99.90
29551;DHT22;16488;52.396;10.696;2022-10-17T15:09:06;21.80;99.90
29551;DHT22;16488;52.396;10.696;2022-10-17T15:11:32;21.80;99.90
29551;DHT22;16488;52.396;10.696;2022-10-17T15:13:57;21.90;99.90
29551;DHT22;16488;52.396;10.696;2022-10-17T15:16:25;21.80;99.90
29551;DHT22;16488;52.396;10.696;2022-10-17T15:18:52;21.70;99.90
29551;DHT22;16488;52.396;10.696;2022-10-17T15:21:21;21.70;99.90
29551;DHT22;16488;52.396;10.696;2022-10-17T15:23:47;21.60;99.90
29551;DHT22;16488;52.396;10.696;2022-10-17T15:26:16;21.50;99.90
29551;DHT22;16488;52.396;10.696;2022-10-17T15:28:43;21.40;99.90
29551;DHT22;16488;52.396;10.696;2022-10-17T15:31:11;21.40;99.90
29551;DHT22;16488;52.396;10.696;2022-10-17T15:33:37;21.40;99.90
29551;DHT22;16488;52.396;10.696;2022-10-17T15:36:02;21.30;99.90
29551;DHT22;16488;52.396;10.696;2022-10-17T15:38:28;21.20;99.90
29551;DHT22;16488;52.396;10.696;2022-10-17T15:40:53;21.30;99.90
29551;DHT22;16488;52.396;10.696;2022-10-17T15:43:19;21.20;99.90
29551;DHT22;16488;52.396;10.696;2022-10-17T15:45:45;21.20;99.90
29551;DHT22;16488;52.396;10.696;2022-10-17T15:48:17;21.10;99.90
29551;DHT22;16488;52.396;10.696;2022-10-17T15:50:44;21.10;99.90
29551;DHT22;16488;52.396;10.696;2022-10-17T15:53:13;21.10;99.90
29551;DHT22;16488;52.396;10.696;2022-10-17T15:55:39;21.10;99.90
29551;DHT22;16488;52.396;10.696;2022-10-17T15:58:04;21.00;99.90
29551;DHT22;16488;52.396;10.696;2022-10-17T16:00:30;21.10;99.90
29551;DHT22;16488;52.396;10.696;2022-10-17T16:02:56;21.10;99.90
29551;DHT22;16488;52.396;10.696;2022-10-17T16:05:23;21.10;99.90
29551;DHT22;16488;52.396;10.696;2022-10-17T16:07:53;21.10;99.90
29551;DHT22;16488;52.396;10.696;2022-10-17T16:10:21;21.00;99.90
29551;DHT22;16488;52.396;10.696;2022-10-17T16:12:47;21.00;99.90
29551;DHT22;16488;52.396;10.696;2022-10-17T16:15:17;20.90;99.90
29551;DHT22;16488;52.396;10.696;2022-10-17T16:17:44;20.90;99.90
29551;DHT22;16488;52.396;10.696;2022-10-17T16:20:11;20.90;99.90
29551;DHT22;16488;52.396;10.696;2022-10-17T16:22:38;20.80;99.90
29551;DHT22;16488;52.396;10.696;2022-10-17T16:25:15;20.80;99.90
29551;DHT22;16488;52.396;10.696;2022-10-17T16:27:44;20.70;99.90
29551;DHT22;16488;52.396;10.696;2022-10-17T16:30:11;20.70;99.90
29551;DHT22;16488;52.396;10.696;2022-10-17T16:32:37;20.60;99.90
29551;DHT22;16488;52.396;10.696;2022-10-17T16:35:03;20.60;99.90
29551;DHT22;16488;52.396;10.696;2022-10-17T16:37:28;20.50;99.90
29551;DHT22;16488;52.396;10.696;2022-10-17T16:39:54;20.50;99.90
29551;DHT22;16488;52.396;10.696;2022-10-17T16:42:20;20.40;99.90
29551;DHT22;16488;52.396;10.696;2022-10-17T16:44:46;20.40;99.90
29551;DHT22;16488;52.396;10.696;2022-10-17T16:47:12;20.40;99.90
29551;DHT22;16488;52.396;10.696;2022-10-17T16:49:38;20.40;99.90
29551;DHT22;16488;52.396;10.696;2022-10-17T16:52:04;20.40;99.90
29551;DHT22;16488;52.396;10.696;2022-10-17T16:54:29;20.40;99.90
29551;DHT22;16488;52.396;10.696;2022-10-17T16:56:55;20.40;99.90
29551;DHT22;16488;52.396;10.696;2022-10-17T16:59:24;20.30;99.90
29551;DHT22;16488;52.396;10.696;2022-10-17T17:01:49;20.30;99.90
29551;DHT22;16488;52.396;10.696;2022-10-17T17:04:15;20.30;99.90
29551;DHT22;16488;52.396;10.696;2022-10-17T17:06:41;20.20;99.90
29551;DHT22;16488;52.396;10.696;2022-10-17T17:09:07;20.20;99.90
29551;DHT22;16488;52.396;10.696;2022-10-17T17:11:36;20.10;99.90
29551;DHT22;16488;52.396;10.696;2022-10-17T17:14:03;20.10;99.90
29551;DHT22;16488;52.396;10.696;2022-10-17T17:16:31;20.10;99.90
29551;DHT22;16488;52.396;10.696;2022-10-17T17:19:09;20.10;99.90
29551;DHT22;16488;52.396;10.696;2022-10-17T17:21:35;20.00;99.90
29551;DHT22;16488;52.396;10.696;2022-10-17T17:24:02;20.00;99.90
29551;DHT22;16488;52.396;10.696;2022-10-17T17:26:31;20.00;99.90
29551;DHT22;16488;52.396;10.696;2022-10-17T17:28:58;19.90;99.90
29551;DHT22;16488;52.396;10.696;2022-10-17T17:31:27;19.80;99.90
29551;DHT22;16488;52.396;10.696;2022-10-17T17:33:53;19.80;99.90
29551;DHT22;16488;52.396;10.696;2022-10-17T17:36:21;19.80;99.90
29551;DHT22;16488;52.396;10.696;2022-10-17T17:38:48;19.80;99.90
29551;DHT22;16488;52.396;10.696;2022-10-17T17:41:15;19.80;99.90
29551;DHT22;16488;52.396;10.696;2022-10-17T17:43:42;19.80;99.90
29551;DHT22;16488;52.396;10.696;2022-10-17T17:46:08;19.90;99.90
29551;DHT22;16488;52.396;10.696;2022-10-17T17:48:38;20.00;99.90
29551;DHT22;16488;52.396;10.696;2022-10-17T17:51:06;20.00;99.90
29551;DHT22;16488;52.396;10.696;2022-10-17T17:53:33;20.10;99.90
29551;DHT22;16488;52.396;10.696;2022-10-17T17:56:07;20.10;99.90
29551;DHT22;16488;52.396;10.696;2022-10-17T17:58:34;20.20;99.90
29551;DHT22;16488;52.396;10.696;2022-10-17T18:01:01;20.20;99.90
29551;DHT22;16488;52.396;10.696;2022-10-17T18:03:32;20.20;99.90
29551;DHT22;16488;52.396;10.696;2022-10-17T18:05:58;20.20;99.90
29551;DHT22;16488;52.396;10.696;2022-10-17T18:08:26;20.20;99.90
29551;DHT22;16488;52.396;10.696;2022-10-17T18:10:52;20.20;99.90
29551;DHT22;16488;52.396;10.696;2022-10-17T18:13:20;20.20;99.90
29551;DHT22;16488;52.396;10.696;2022-10-17T18:15:46;20.20;99.90
29551;DHT22;16488;52.396;10.696;2022-10-17T18:18:13;20.20;99.90
29551;DHT22;16488;52.396;10.696;2022-10-17T18:20:40;20.20;99.90
29551;DHT22;16488;52.396;10.696;2022-10-17T18:23:06;20.10;99.90
29551;DHT22;16488;52.396;10.696;2022-10-17T18:25:31;20.00;99.90
29551;DHT22;16488;52.396;10.696;2022-10-17T18:27:57;20.00;99.90
29551;DHT22;16488;52.396;10.696;2022-10-17T18:30:22;19.90;99.90
29551;DHT22;16488;52.396;10.696;2022-10-17T18:32:48;19.80;99.90
29551;DHT22;16488;52.396;10.696;2022-10-17T18:35:13;19.70;99.90
29551;DHT22;16488;52.396;10.696;2022-10-17T18:37:39;19.60;99.90
29551;DHT22;16488;52.396;10.696;2022-10-17T18:40:05;19.50;99.90
29551;DHT22;16488;52.396;10.696;2022-10-17T18:42:31;19.40;99.90
29551;DHT22;16488;52.396;10.696;2022-10-17T18:44:56;19.20;99.90
29551;DHT22;16488;52.396;10.696;2022-10-17T18:47:22;19.20;99.90
29551;DHT22;16488;52.396;10.696;2022-10-17T18:49:47;19.20;99.90
29551;DHT22;16488;52.396;10.696;2022-10-17T18:52:13;19.20;99.90
29551;DHT22;16488;52.396;10.696;2022-10-17T18:54:39;19.10;99.90
29551;DHT22;16488;52.396;10.696;2022-10-17T18:57:05;19.00;99.90
29551;DHT22;16488;52.396;10.696;2022-10-17T18:59:30;19.00;99.90
29551;DHT22;16488;52.396;10.696;2022-10-17T19:01:56;18.90;99.90
29551;DHT22;16488;52.396;10.696;2022-10-17T19:04:22;18.80;99.90
29551;DHT22;16488;52.396;10.696;2022-10-17T19:06:48;18.70;99.90
29551;DHT22;16488;52.396;10.696;2022-10-17T19:09:14;18.80;99.90
29551;DHT22;16488;52.396;10.696;2022-10-17T19:11:40;18.70;99.90
29551;DHT22;16488;52.396;10.696;2022-10-17T19:14:08;18.80;99.90
29551;DHT22;16488;52.396;10.696;2022-10-17T19:16:39;18.80;99.90
29551;DHT22;16488;52.396;10.696;2022-10-17T19:19:14;18.80;99.90
29551;DHT22;16488;52.396;10.696;2022-10-17T19:21:40;18.80;99.90
29551;DHT22;16488;52.396;10.696;2022-10-17T19:24:09;18.70;99.90
29551;DHT22;16488;52.396;10.696;2022-10-17T19:26:36;18.60;99.90
29551;DHT22;16488;52.396;10.696;2022-10-17T19:29:03;18.60;99.90
29551;DHT22;16488;52.396;10.696;2022-10-17T19:31:30;18.50;99.90
29551;DHT22;16488;52.396;10.696;2022-10-17T19:33:56;18.40;99.90
29551;DHT22;16488;52.396;10.696;2022-10-17T19:36:25;18.30;99.90
29551;DHT22;16488;52.396;10.696;2022-10-17T19:38:54;18.20;99.90
29551;DHT22;16488;52.396;10.696;2022-10-17T19:41:20;18.20;99.90
29551;DHT22;16488;52.396;10.696;2022-10-17T19:43:47;18.20;99.90
29551;DHT22;16488;52.396;10.696;2022-10-17T19:46:24;18.20;99.90
29551;DHT22;16488;52.396;10.696;2022-10-17T19:48:50;18.10;99.90
29551;DHT22;16488;52.396;10.696;2022-10-17T19:51:17;18.00;99.90
29551;DHT22;16488;52.396;10.696;2022-10-17T19:53:44;18.00;99.90
29551;DHT22;16488;52.396;10.696;2022-10-17T19:56:09;17.90;99.90
29551;DHT22;16488;52.396;10.696;2022-10-17T19:58:36;17.90;99.90
29551;DHT22;16488;52.396;10.696;2022-10-17T20:01:09;18.00;99.90
29551;DHT22;16488;52.396;10.696;2022-10-17T20:03:35;17.90;99.90
29551;DHT22;16488;52.396;10.696;2022-10-17T20:06:01;18.00;99.90
29551;DHT22;16488;52.396;10.696;2022-10-17T20:08:27;18.10;99.90
29551;DHT22;16488;52.396;10.696;2022-10-17T20:10:52;18.10;99.90
29551;DHT22;16488;52.396;10.696;2022-10-17T20:13:18;18.10;99.90
29551;DHT22;16488;52.396;10.696;2022-10-17T20:15:53;18.20;99.90
29551;DHT22;16488;52.396;10.696;2022-10-17T20:18:18;18.20;99.90
29551;DHT22;16488;52.396;10.696;2022-10-17T20:20:44;18.20;99.90
29551;DHT22;16488;52.396;10.696;2022-10-17T20:23:10;18.20;99.90
29551;DHT22;16488;52.396;10.696;2022-10-17T20:25:35;18.20;99.90
29551;DHT22;16488;52.396;10.696;2022-10-17T20:28:03;18.10;99.90
29551;DHT22;16488;52.396;10.696;2022-10-17T20:30:29;18.10;99.90
29551;DHT22;16488;52.396;10.696;2022-10-17T20:32:54;18.10;99.90
29551;DHT22;16488;52.396;10.696;2022-10-17T20:35:20;18.10;99.90
29551;DHT22;16488;52.396;10.696;2022-10-17T20:37:46;18.00;99.90
29551;DHT22;16488;52.396;10.696;2022-10-17T20:40:11;18.10;99.90
29551;DHT22;16488;52.396;10.696;2022-10-17T20:42:37;18.10;99.90
29551;DHT22;16488;52.396;10.696;2022-10-17T20:45:03;18.20;99.90
29551;DHT22;16488;52.396;10.696;2022-10-17T20:47:30;18.10;99.90
29551;DHT22;16488;52.396;10.696;2022-10-17T20:49:56;18.00;99.90
29551;DHT22;16488;52.396;10.696;2022-10-17T20:52:21;18.00;99.90
29551;DHT22;16488;52.396;10.696;2022-10-17T20:54:47;17.90;99.90
29551;DHT22;16488;52.396;10.696;2022-10-17T20:57:12;17.90;99.90
29551;DHT22;16488;52.396;10.696;2022-10-17T20:59:38;17.80;99.90
29551;DHT22;16488;52.396;10.696;2022-10-17T21:02:04;17.80;99.90
29551;DHT22;16488;52.396;10.696;2022-10-17T21:04:31;17.70;99.90
29551;DHT22;16488;52.396;10.696;2022-10-17T21:06:56;17.70;99.90
29551;DHT22;16488;52.396;10.696;2022-10-17T21:09:22;17.80;99.90
29551;DHT22;16488;52.396;10.696;2022-10-17T21:11:48;17.80;99.90
29551;DHT22;16488;52.396;10.696;2022-10-17T21:14:16;17.70;99.90
29551;DHT22;16488;52.396;10.696;2022-10-17T21:16:42;17.70;99.90
29551;DHT22;16488;52.396;10.696;2022-10-17T21:19:10;17.70;99.90
29551;DHT22;16488;52.396;10.696;2022-10-17T21:21:37;17.60;99.90
29551;DHT22;16488;52.396;10.696;2022-10-17T21:24:06;17.60;99.90
29551;DHT22;16488;52.396;10.696;2022-10-17T21:26:36;17.50;99.90
29551;DHT22;16488;52.396;10.696;2022-10-17T21:29:02;17.50;99.90
29551;DHT22;16488;52.396;10.696;2022-10-17T21:31:31;17.50;99.90
29551;DHT22;16488;52.396;10.696;2022-10-17T21:33:59;17.50;99.90
29551;DHT22;16488;52.396;10.696;2022-10-17T21:36:26;17.40;99.90
29551;DHT22;16488;52.396;10.696;2022-10-17T21:38:54;17.40;99.90
29551;DHT22;16488;52.396;10.696;2022-10-17T21:41:21;17.40;99.90
29551;DHT22;16488;52.396;10.696;2022-10-17T21:43:51;17.40;99.90
29551;DHT22;16488;52.396;10.696;2022-10-17T21:46:18;17.50;99.90
29551;DHT22;16488;52.396;10.696;2022-10-17T21:48:44;17.40;99.90
29551;DHT22;16488;52.396;10.696;2022-10-17T21:51:13;17.40;99.90
29551;DHT22;16488;52.396;10.696;2022-10-17T21:53:39;17.40;99.90
29551;DHT22;16488;52.396;10.696;2022-10-17T21:56:09;17.40;99.90
29551;DHT22;16488;52.396;10.696;2022-10-17T21:58:35;17.40;99.90
29551;DHT22;16488;52.396;10.696;2022-10-17T22:01:08;17.40;99.90
29551;DHT22;16488;52.396;10.696;2022-10-17T22:03:36;17.30;99.90
29551;DHT22;16488;52.396;10.696;2022-10-17T22:06:03;17.30;99.90
29551;DHT22;16488;52.396;10.696;2022-10-17T22:08:29;17.30;99.90
29551;DHT22;16488;52.396;10.696;2022-10-17T22:10:56;17.30;99.90
29551;DHT22;16488;52.396;10.696;2022-10-17T22:13:22;17.30;99.90
29551;DHT22;16488;52.396;10.696;2022-10-17T22:15:48;17.20;99.90
29551;DHT22;16488;52.396;10.696;2022-10-17T22:18:13;17.10;99.90
29551;DHT22;16488;52.396;10.696;2022-10-17T22:20:39;17.10;99.90
29551;DHT22;16488;52.396;10.696;2022-10-17T22:23:04;17.20;99.90
29551;DHT22;16488;52.396;10.696;2022-10-17T22:25:30;17.20;99.90
29551;DHT22;16488;52.396;10.696;2022-10-17T22:27:56;17.10;99.90
29551;DHT22;16488;52.396;10.696;2022-10-17T22:30:21;17.10;99.90
29551;DHT22;16488;52.396;10.696;2022-10-17T22:32:47;17.00;99.90
29551;DHT22;16488;52.396;10.696;2022-10-17T22:35:12;17.00;99.90
29551;DHT22;16488;52.396;10.696;2022-10-17T22:37:38;17.00;99.90
29551;DHT22;16488;52.396;10.696;2022-10-17T22:40:05;16.90;99.90
29551;DHT22;16488;52.396;10.696;2022-10-17T22:42:30;17.00;99.90
29551;DHT22;16488;52.396;10.696;2022-10-17T22:44:59;17.10;99.90
29551;DHT22;16488;52.396;10.696;2022-10-17T22:47:27;17.10;99.90
29551;DHT22;16488;52.396;10.696;2022-10-17T22:49:53;17.00;99.90
29551;DHT22;16488;52.396;10.696;2022-10-17T22:52:18;17.00;99.90
29551;DHT22;16488;52.396;10.696;2022-10-17T22:54:44;16.90;99.90
29551;DHT22;16488;52.396;10.696;2022-10-17T22:57:09;16.90;99.90
29551;DHT22;16488;52.396;10.696;2022-10-17T22:59:36;16.90;99.90
29551;DHT22;16488;52.396;10.696;2022-10-17T23:02:01;17.00;99.90
29551;DHT22;16488;52.396;10.696;2022-10-17T23:04:27;17.00;99.90
29551;DHT22;16488;52.396;10.696;2022-10-17T23:06:52;17.00;99.90
29551;DHT22;16488;52.396;10.696;2022-10-17T23:09:18;17.00;99.90
29551;DHT22;16488;52.396;10.696;2022-10-17T23:11:43;17.00;99.90
29551;DHT22;16488;52.396;10.696;2022-10-17T23:14:09;17.10;99.90
29551;DHT22;16488;52.396;10.696;2022-10-17T23:16:34;17.10;99.90
29551;DHT22;16488;52.396;10.696;2022-10-17T23:19:00;17.10;99.90
29551;DHT22;16488;52.396;10.696;2022-10-17T23:21:25;17.10;99.90
29551;DHT22;16488;52.396;10.696;2022-10-17T23:23:51;17.00;99.90
29551;DHT22;16488;52.396;10.696;2022-10-17T23:26:16;17.10;99.90
29551;DHT22;16488;52.396;10.696;2022-10-17T23:28:42;17.00;99.90
29551;DHT22;16488;52.396;10.696;2022-10-17T23:31:09;17.00;99.90
29551;DHT22;16488;52.396;10.696;2022-10-17T23:33:35;17.00;99.90
29551;DHT22;16488;52.396;10.696;2022-10-17T23:36:05;17.00;99.90
29551;DHT22;16488;52.396;10.696;2022-10-17T23:38:30;17.00;99.90
29551;DHT22;16488;52.396;10.696;2022-10-17T23:40:56;17.00;99.90
29551;DHT22;16488;52.396;10.696;2022-10-17T23:43:21;17.00;99.90
29551;DHT22;16488;52.396;10.696;2022-10-17T23:45:47;16.90;99.90
29551;DHT22;16488;52.396;10.696;2022-10-17T23:48:13;16.90;99.90
29551;DHT22;16488;52.396;10.696;2022-10-17T23:50:39;16.90;99.90
29551;DHT22;16488;52.396;10.696;2022-10-17T23:53:04;16.80;99.90
29551;DHT22;16488;52.396;10.696;2022-10-17T23:55:30;16.70;99.90
29551;DHT22;16488;52.396;10.696;2022-10-17T23:57:55;16.70;99.90
